sensor_id;sensor_type;location;lat;lon;timestamp;P1;durP1;ratioP1;P2;durP2;ratioP2
52380;SDS011;38310;52.796;6.942;2023-01-09T00:00:47;5.30;;;3.33;;
52380;SDS011;38310;52.796;6.942;2023-01-09T00:03:13;4.95;;;3.00;;
52380;SDS011;38310;52.796;6.942;2023-01-09T00:05:39;5.10;;;3.35;;
52380;SDS011;38310;52.796;6.942;2023-01-09T00:08:05;4.82;;;3.05;;
52380;SDS011;38310;52.796;6.942;2023-01-09T00:10:31;4.60;;;3.03;;
52380;SDS011;38310;52.796;6.942;2023-01-09T00:12:57;6.35;;;3.08;;
52380;SDS011;38310;52.796;6.942;2023-01-09T00:15:23;6.88;;;2.88;;
52380;SDS011;38310;52.796;6.942;2023-01-09T00:17:48;4.72;;;3.13;;
52380;SDS011;38310;52.796;6.942;2023-01-09T00:22:40;4.53;;;3.05;;
52380;SDS011;38310;52.796;6.942;2023-01-09T00:25:06;6.55;;;3.15;;
52380;SDS011;38310;52.796;6.942;2023-01-09T00:27:33;4.95;;;3.15;;
52380;SDS011;38310;52.796;6.942;2023-01-09T00:29:59;4.65;;;2.75;;
52380;SDS011;38310;52.796;6.942;2023-01-09T00:32:26;5.63;;;3.80;;
52380;SDS011;38310;52.796;6.942;2023-01-09T00:34:52;4.63;;;3.28;;
52380;SDS011;38310;52.796;6.942;2023-01-09T00:37:19;10.02;;;3.65;;
52380;SDS011;38310;52.796;6.942;2023-01-09T00:39:45;5.55;;;4.13;;
52380;SDS011;38310;52.796;6.942;2023-01-09T00:42:13;5.40;;;3.95;;
52380;SDS011;38310;52.796;6.942;2023-01-09T00:44:43;7.78;;;4.07;;
52380;SDS011;38310;52.796;6.942;2023-01-09T00:47:14;5.90;;;3.75;;
52380;SDS011;38310;52.796;6.942;2023-01-09T00:49:46;8.48;;;4.03;;
52380;SDS011;38310;52.796;6.942;2023-01-09T00:52:13;9.80;;;4.32;;
52380;SDS011;38310;52.796;6.942;2023-01-09T00:54:40;7.03;;;4.47;;
52380;SDS011;38310;52.796;6.942;2023-01-09T00:57:07;7.20;;;3.95;;
52380;SDS011;38310;52.796;6.942;2023-01-09T00:59:37;6.68;;;4.60;;
52380;SDS011;38310;52.796;6.942;2023-01-09T01:02:03;8.75;;;4.50;;
52380;SDS011;38310;52.796;6.942;2023-01-09T01:04:29;8.00;;;5.22;;
52380;SDS011;38310;52.796;6.942;2023-01-09T01:09:57;8.55;;;5.45;;
52380;SDS011;38310;52.796;6.942;2023-01-09T01:12:23;9.15;;;6.25;;
52380;SDS011;38310;52.796;6.942;2023-01-09T01:14:49;7.95;;;4.03;;
52380;SDS011;38310;52.796;6.942;2023-01-09T01:17:16;8.65;;;4.22;;
52380;SDS011;38310;52.796;6.942;2023-01-09T01:19:42;3.78;;;2.63;;
52380;SDS011;38310;52.796;6.942;2023-01-09T01:22:08;4.22;;;2.20;;
52380;SDS011;38310;52.796;6.942;2023-01-09T01:24:34;4.22;;;2.70;;
52380;SDS011;38310;52.796;6.942;2023-01-09T01:26:59;4.80;;;2.80;;
52380;SDS011;38310;52.796;6.942;2023-01-09T01:29:25;6.88;;;3.63;;
52380;SDS011;38310;52.796;6.942;2023-01-09T01:31:51;4.70;;;3.75;;
52380;SDS011;38310;52.796;6.942;2023-01-09T01:34:17;5.65;;;3.72;;
52380;SDS011;38310;52.796;6.942;2023-01-09T01:36:43;6.00;;;4.25;;
52380;SDS011;38310;52.796;6.942;2023-01-09T01:39:09;6.57;;;4.78;;
52380;SDS011;38310;52.796;6.942;2023-01-09T01:41:35;6.22;;;4.63;;
52380;SDS011;38310;52.796;6.942;2023-01-09T01:44:06;5.90;;;4.57;;
52380;SDS011;38310;52.796;6.942;2023-01-09T01:46:52;6.25;;;3.92;;
52380;SDS011;38310;52.796;6.942;2023-01-09T01:49:19;7.57;;;4.30;;
52380;SDS011;38310;52.796;6.942;2023-01-09T01:51:46;6.28;;;4.45;;
52380;SDS011;38310;52.796;6.942;2023-01-09T01:54:17;9.30;;;4.47;;
52380;SDS011;38310;52.796;6.942;2023-01-09T01:56:49;6.13;;;3.80;;
52380;SDS011;38310;52.796;6.942;2023-01-09T02:02:05;5.78;;;4.15;;
52380;SDS011;38310;52.796;6.942;2023-01-09T02:04:32;7.57;;;4.65;;
52380;SDS011;38310;52.796;6.942;2023-01-09T02:07:01;7.30;;;4.57;;
52380;SDS011;38310;52.796;6.942;2023-01-09T02:09:32;7.82;;;4.80;;
52380;SDS011;38310;52.796;6.942;2023-01-09T02:11:59;9.55;;;4.97;;
52380;SDS011;38310;52.796;6.942;2023-01-09T02:14:27;6.50;;;4.30;;
52380;SDS011;38310;52.796;6.942;2023-01-09T02:17:09;5.82;;;4.80;;
52380;SDS011;38310;52.796;6.942;2023-01-09T02:19:51;6.55;;;3.50;;
52380;SDS011;38310;52.796;6.942;2023-01-09T02:30:48;4.20;;;2.53;;
52380;SDS011;38310;52.796;6.942;2023-01-09T02:33:32;4.20;;;2.50;;
52380;SDS011;38310;52.796;6.942;2023-01-09T02:39:06;4.43;;;2.33;;
52380;SDS011;38310;52.796;6.942;2023-01-09T02:41:49;4.32;;;2.70;;
52380;SDS011;38310;52.796;6.942;2023-01-09T02:44:38;3.90;;;2.10;;
52380;SDS011;38310;52.796;6.942;2023-01-09T02:49:54;7.50;;;2.70;;
52380;SDS011;38310;52.796;6.942;2023-01-09T03:00:53;3.95;;;2.22;;
52380;SDS011;38310;52.796;6.942;2023-01-09T03:04:03;5.20;;;2.50;;
52380;SDS011;38310;52.796;6.942;2023-01-09T03:06:46;4.75;;;2.53;;
52380;SDS011;38310;52.796;6.942;2023-01-09T03:09:15;5.25;;;2.78;;
52380;SDS011;38310;52.796;6.942;2023-01-09T03:11:58;4.93;;;3.20;;
52380;SDS011;38310;52.796;6.942;2023-01-09T03:14:39;6.00;;;3.15;;
52380;SDS011;38310;52.796;6.942;2023-01-09T03:17:10;6.25;;;3.03;;
52380;SDS011;38310;52.796;6.942;2023-01-09T03:19:40;4.80;;;2.97;;
52380;SDS011;38310;52.796;6.942;2023-01-09T03:22:07;5.25;;;2.55;;
52380;SDS011;38310;52.796;6.942;2023-01-09T03:24:33;5.47;;;2.85;;
52380;SDS011;38310;52.796;6.942;2023-01-09T03:26:58;4.40;;;3.00;;
52380;SDS011;38310;52.796;6.942;2023-01-09T03:29:25;5.75;;;2.83;;
52380;SDS011;38310;52.796;6.942;2023-01-09T03:31:51;6.03;;;3.45;;
52380;SDS011;38310;52.796;6.942;2023-01-09T03:34:17;6.85;;;3.50;;
52380;SDS011;38310;52.796;6.942;2023-01-09T03:36:42;6.28;;;3.28;;
52380;SDS011;38310;52.796;6.942;2023-01-09T03:39:08;4.00;;;3.08;;
52380;SDS011;38310;52.796;6.942;2023-01-09T03:41:34;7.50;;;3.33;;
52380;SDS011;38310;52.796;6.942;2023-01-09T03:44:00;6.57;;;3.83;;
52380;SDS011;38310;52.796;6.942;2023-01-09T03:46:25;7.45;;;3.78;;
52380;SDS011;38310;52.796;6.942;2023-01-09T03:48:51;5.60;;;3.63;;
52380;SDS011;38310;52.796;6.942;2023-01-09T03:51:17;6.03;;;3.47;;
52380;SDS011;38310;52.796;6.942;2023-01-09T03:53:42;6.72;;;3.40;;
52380;SDS011;38310;52.796;6.942;2023-01-09T03:56:08;5.10;;;3.58;;
52380;SDS011;38310;52.796;6.942;2023-01-09T03:58:34;8.15;;;3.50;;
52380;SDS011;38310;52.796;6.942;2023-01-09T04:01:00;7.25;;;3.60;;
52380;SDS011;38310;52.796;6.942;2023-01-09T04:03:29;6.28;;;3.40;;
52380;SDS011;38310;52.796;6.942;2023-01-09T04:05:55;8.07;;;4.63;;
52380;SDS011;38310;52.796;6.942;2023-01-09T04:08:20;7.15;;;3.65;;
52380;SDS011;38310;52.796;6.942;2023-01-09T04:10:47;6.57;;;3.63;;
52380;SDS011;38310;52.796;6.942;2023-01-09T04:13:14;6.82;;;4.10;;
52380;SDS011;38310;52.796;6.942;2023-01-09T04:15:40;6.32;;;4.30;;
52380;SDS011;38310;52.796;6.942;2023-01-09T04:18:06;8.70;;;4.90;;
52380;SDS011;38310;52.796;6.942;2023-01-09T04:20:32;7.10;;;4.78;;
52380;SDS011;38310;52.796;6.942;2023-01-09T04:22:58;8.25;;;4.95;;
52380;SDS011;38310;52.796;6.942;2023-01-09T04:25:24;7.05;;;5.25;;
52380;SDS011;38310;52.796;6.942;2023-01-09T04:27:50;9.07;;;6.20;;
52380;SDS011;38310;52.796;6.942;2023-01-09T04:30:16;15.73;;;6.05;;
52380;SDS011;38310;52.796;6.942;2023-01-09T04:32:42;10.80;;;6.30;;
52380;SDS011;38310;52.796;6.942;2023-01-09T04:35:08;13.65;;;7.00;;
52380;SDS011;38310;52.796;6.942;2023-01-09T04:37:33;15.27;;;7.22;;
52380;SDS011;38310;52.796;6.942;2023-01-09T04:40:02;12.40;;;7.82;;
52380;SDS011;38310;52.796;6.942;2023-01-09T04:45:02;12.32;;;7.97;;
52380;SDS011;38310;52.796;6.942;2023-01-09T04:47:32;12.77;;;8.57;;
52380;SDS011;38310;52.796;6.942;2023-01-09T04:49:58;13.45;;;8.82;;
52380;SDS011;38310;52.796;6.942;2023-01-09T04:52:24;12.15;;;8.23;;
52380;SDS011;38310;52.796;6.942;2023-01-09T04:54:50;14.13;;;9.20;;
52380;SDS011;38310;52.796;6.942;2023-01-09T04:57:15;13.68;;;9.43;;
52380;SDS011;38310;52.796;6.942;2023-01-09T04:59:41;15.55;;;10.65;;
52380;SDS011;38310;52.796;6.942;2023-01-09T05:02:07;16.65;;;10.65;;
52380;SDS011;38310;52.796;6.942;2023-01-09T05:04:33;17.48;;;10.63;;
52380;SDS011;38310;52.796;6.942;2023-01-09T05:06:59;18.42;;;10.85;;
52380;SDS011;38310;52.796;6.942;2023-01-09T05:09:25;17.02;;;11.07;;
52380;SDS011;38310;52.796;6.942;2023-01-09T05:11:50;17.15;;;10.70;;
52380;SDS011;38310;52.796;6.942;2023-01-09T05:14:16;16.85;;;10.48;;
52380;SDS011;38310;52.796;6.942;2023-01-09T05:16:42;17.83;;;10.50;;
52380;SDS011;38310;52.796;6.942;2023-01-09T05:19:07;16.23;;;10.18;;
52380;SDS011;38310;52.796;6.942;2023-01-09T05:21:33;17.60;;;10.85;;
52380;SDS011;38310;52.796;6.942;2023-01-09T05:23:59;21.55;;;10.68;;
52380;SDS011;38310;52.796;6.942;2023-01-09T05:26:24;15.80;;;10.05;;
52380;SDS011;38310;52.796;6.942;2023-01-09T05:28:51;13.65;;;9.25;;
52380;SDS011;38310;52.796;6.942;2023-01-09T05:31:18;16.75;;;9.63;;
52380;SDS011;38310;52.796;6.942;2023-01-09T05:33:44;17.38;;;9.23;;
52380;SDS011;38310;52.796;6.942;2023-01-09T05:36:10;18.77;;;10.38;;
52380;SDS011;38310;52.796;6.942;2023-01-09T05:38:36;16.42;;;10.02;;
52380;SDS011;38310;52.796;6.942;2023-01-09T05:41:02;15.38;;;9.77;;
52380;SDS011;38310;52.796;6.942;2023-01-09T05:43:28;14.15;;;9.18;;
52380;SDS011;38310;52.796;6.942;2023-01-09T05:45:54;14.82;;;8.75;;
52380;SDS011;38310;52.796;6.942;2023-01-09T05:48:20;14.25;;;8.10;;
52380;SDS011;38310;52.796;6.942;2023-01-09T05:50:45;13.02;;;8.27;;
52380;SDS011;38310;52.796;6.942;2023-01-09T05:53:11;16.75;;;8.45;;
52380;SDS011;38310;52.796;6.942;2023-01-09T05:55:37;12.50;;;8.07;;
52380;SDS011;38310;52.796;6.942;2023-01-09T05:58:03;13.23;;;8.95;;
52380;SDS011;38310;52.796;6.942;2023-01-09T06:00:28;12.95;;;8.82;;
52380;SDS011;38310;52.796;6.942;2023-01-09T06:02:54;16.70;;;9.27;;
52380;SDS011;38310;52.796;6.942;2023-01-09T06:05:20;16.75;;;9.63;;
52380;SDS011;38310;52.796;6.942;2023-01-09T06:07:45;14.30;;;9.05;;
52380;SDS011;38310;52.796;6.942;2023-01-09T06:10:12;14.02;;;8.90;;
52380;SDS011;38310;52.796;6.942;2023-01-09T06:12:39;13.48;;;9.02;;
52380;SDS011;38310;52.796;6.942;2023-01-09T06:15:06;12.18;;;7.97;;
52380;SDS011;38310;52.796;6.942;2023-01-09T06:17:32;14.98;;;8.45;;
52380;SDS011;38310;52.796;6.942;2023-01-09T06:19:58;14.10;;;8.30;;
52380;SDS011;38310;52.796;6.942;2023-01-09T06:22:24;13.77;;;7.93;;
52380;SDS011;38310;52.796;6.942;2023-01-09T06:24:49;14.05;;;8.93;;
52380;SDS011;38310;52.796;6.942;2023-01-09T06:27:15;16.00;;;8.32;;
52380;SDS011;38310;52.796;6.942;2023-01-09T06:29:41;11.50;;;8.02;;
52380;SDS011;38310;52.796;6.942;2023-01-09T06:32:06;12.98;;;6.93;;
52380;SDS011;38310;52.796;6.942;2023-01-09T06:34:32;10.88;;;6.88;;
52380;SDS011;38310;52.796;6.942;2023-01-09T06:36:58;11.02;;;6.82;;
52380;SDS011;38310;52.796;6.942;2023-01-09T06:39:23;21.67;;;7.63;;
52380;SDS011;38310;52.796;6.942;2023-01-09T06:41:49;12.98;;;6.20;;
52380;SDS011;38310;52.796;6.942;2023-01-09T06:44:15;11.20;;;6.53;;
52380;SDS011;38310;52.796;6.942;2023-01-09T06:46:40;14.98;;;6.82;;
52380;SDS011;38310;52.796;6.942;2023-01-09T06:49:07;10.52;;;6.50;;
52380;SDS011;38310;52.796;6.942;2023-01-09T06:51:33;11.15;;;5.90;;
52380;SDS011;38310;52.796;6.942;2023-01-09T06:53:59;13.07;;;5.93;;
52380;SDS011;38310;52.796;6.942;2023-01-09T06:56:25;10.30;;;6.15;;
52380;SDS011;38310;52.796;6.942;2023-01-09T06:58:50;13.05;;;6.60;;
52380;SDS011;38310;52.796;6.942;2023-01-09T07:01:16;11.93;;;6.15;;
52380;SDS011;38310;52.796;6.942;2023-01-09T07:03:42;7.63;;;5.25;;
52380;SDS011;38310;52.796;6.942;2023-01-09T07:06:08;8.90;;;6.05;;
52380;SDS011;38310;52.796;6.942;2023-01-09T07:08:34;8.82;;;5.53;;
52380;SDS011;38310;52.796;6.942;2023-01-09T07:11:00;7.88;;;5.30;;
52380;SDS011;38310;52.796;6.942;2023-01-09T07:13:25;9.25;;;5.10;;
52380;SDS011;38310;52.796;6.942;2023-01-09T07:15:51;13.23;;;6.18;;
52380;SDS011;38310;52.796;6.942;2023-01-09T07:18:17;10.73;;;5.97;;
52380;SDS011;38310;52.796;6.942;2023-01-09T07:20:43;8.80;;;5.25;;
52380;SDS011;38310;52.796;6.942;2023-01-09T07:23:12;11.93;;;6.20;;
52380;SDS011;38310;52.796;6.942;2023-01-09T07:25:42;11.85;;;5.72;;
52380;SDS011;38310;52.796;6.942;2023-01-09T07:28:08;15.80;;;6.70;;
52380;SDS011;38310;52.796;6.942;2023-01-09T07:30:34;10.40;;;5.10;;
52380;SDS011;38310;52.796;6.942;2023-01-09T07:33:00;9.32;;;5.75;;
52380;SDS011;38310;52.796;6.942;2023-01-09T07:35:25;14.05;;;6.07;;
52380;SDS011;38310;52.796;6.942;2023-01-09T07:37:51;10.20;;;5.28;;
52380;SDS011;38310;52.796;6.942;2023-01-09T07:40:17;8.73;;;6.10;;
52380;SDS011;38310;52.796;6.942;2023-01-09T07:42:43;9.40;;;6.63;;
52380;SDS011;38310;52.796;6.942;2023-01-09T07:45:09;9.05;;;6.38;;
52380;SDS011;38310;52.796;6.942;2023-01-09T07:47:35;9.25;;;5.45;;
52380;SDS011;38310;52.796;6.942;2023-01-09T07:50:01;10.07;;;6.32;;
52380;SDS011;38310;52.796;6.942;2023-01-09T07:52:26;8.18;;;5.50;;
52380;SDS011;38310;52.796;6.942;2023-01-09T07:54:52;10.15;;;5.93;;
52380;SDS011;38310;52.796;6.942;2023-01-09T07:57:18;9.77;;;5.72;;
52380;SDS011;38310;52.796;6.942;2023-01-09T07:59:43;10.50;;;5.43;;
52380;SDS011;38310;52.796;6.942;2023-01-09T08:02:09;12.10;;;6.18;;
52380;SDS011;38310;52.796;6.942;2023-01-09T08:04:36;11.73;;;5.30;;
52380;SDS011;38310;52.796;6.942;2023-01-09T08:07:02;12.05;;;5.43;;
52380;SDS011;38310;52.796;6.942;2023-01-09T08:09:28;10.00;;;5.75;;
52380;SDS011;38310;52.796;6.942;2023-01-09T08:11:54;7.45;;;5.22;;
52380;SDS011;38310;52.796;6.942;2023-01-09T08:14:21;9.18;;;5.35;;
52380;SDS011;38310;52.796;6.942;2023-01-09T08:16:47;12.63;;;6.35;;
52380;SDS011;38310;52.796;6.942;2023-01-09T08:19:13;10.32;;;5.45;;
52380;SDS011;38310;52.796;6.942;2023-01-09T08:21:38;9.48;;;5.13;;
52380;SDS011;38310;52.796;6.942;2023-01-09T08:24:04;8.52;;;4.47;;
52380;SDS011;38310;52.796;6.942;2023-01-09T08:26:30;13.00;;;5.57;;
52380;SDS011;38310;52.796;6.942;2023-01-09T08:28:56;14.02;;;5.28;;
52380;SDS011;38310;52.796;6.942;2023-01-09T08:31:22;8.55;;;4.82;;
52380;SDS011;38310;52.796;6.942;2023-01-09T08:33:48;10.25;;;5.47;;
52380;SDS011;38310;52.796;6.942;2023-01-09T08:36:13;8.73;;;4.90;;
52380;SDS011;38310;52.796;6.942;2023-01-09T08:38:39;8.20;;;4.35;;
52380;SDS011;38310;52.796;6.942;2023-01-09T08:41:05;9.07;;;4.28;;
52380;SDS011;38310;52.796;6.942;2023-01-09T08:43:49;9.13;;;5.10;;
52380;SDS011;38310;52.796;6.942;2023-01-09T08:46:34;11.70;;;5.13;;
52380;SDS011;38310;52.796;6.942;2023-01-09T08:49:19;7.30;;;4.18;;
52380;SDS011;38310;52.796;6.942;2023-01-09T08:51:45;10.70;;;5.18;;
52380;SDS011;38310;52.796;6.942;2023-01-09T08:54:11;10.23;;;5.22;;
52380;SDS011;38310;52.796;6.942;2023-01-09T08:56:38;9.32;;;4.65;;
52380;SDS011;38310;52.796;6.942;2023-01-09T08:59:04;10.50;;;4.38;;
52380;SDS011;38310;52.796;6.942;2023-01-09T09:01:29;7.85;;;4.18;;
52380;SDS011;38310;52.796;6.942;2023-01-09T09:03:56;7.82;;;4.88;;
52380;SDS011;38310;52.796;6.942;2023-01-09T09:06:21;9.13;;;4.50;;
52380;SDS011;38310;52.796;6.942;2023-01-09T09:08:47;10.02;;;4.72;;
52380;SDS011;38310;52.796;6.942;2023-01-09T09:11:13;10.68;;;5.20;;
52380;SDS011;38310;52.796;6.942;2023-01-09T09:13:39;9.98;;;4.70;;
52380;SDS011;38310;52.796;6.942;2023-01-09T09:16:04;15.02;;;5.55;;
52380;SDS011;38310;52.796;6.942;2023-01-09T09:18:30;11.75;;;5.20;;
52380;SDS011;38310;52.796;6.942;2023-01-09T09:20:56;10.27;;;4.90;;
52380;SDS011;38310;52.796;6.942;2023-01-09T09:23:22;11.35;;;4.55;;
52380;SDS011;38310;52.796;6.942;2023-01-09T09:25:47;9.75;;;5.22;;
52380;SDS011;38310;52.796;6.942;2023-01-09T09:28:13;8.88;;;5.22;;
52380;SDS011;38310;52.796;6.942;2023-01-09T09:30:39;10.52;;;5.32;;
52380;SDS011;38310;52.796;6.942;2023-01-09T09:33:05;12.13;;;5.15;;
52380;SDS011;38310;52.796;6.942;2023-01-09T09:35:31;8.55;;;4.97;;
52380;SDS011;38310;52.796;6.942;2023-01-09T09:38:03;10.82;;;4.70;;
52380;SDS011;38310;52.796;6.942;2023-01-09T09:43:00;8.52;;;4.80;;
52380;SDS011;38310;52.796;6.942;2023-01-09T09:46:19;10.43;;;4.85;;
52380;SDS011;38310;52.796;6.942;2023-01-09T09:48:58;9.52;;;5.00;;
52380;SDS011;38310;52.796;6.942;2023-01-09T09:51:35;10.35;;;5.22;;
52380;SDS011;38310;52.796;6.942;2023-01-09T09:54:26;11.18;;;4.22;;
52380;SDS011;38310;52.796;6.942;2023-01-09T09:56:56;9.65;;;4.60;;
52380;SDS011;38310;52.796;6.942;2023-01-09T09:59:25;10.63;;;5.03;;
52380;SDS011;38310;52.796;6.942;2023-01-09T10:01:54;10.95;;;4.78;;
52380;SDS011;38310;52.796;6.942;2023-01-09T10:04:30;8.68;;;4.70;;
52380;SDS011;38310;52.796;6.942;2023-01-09T10:06:59;7.90;;;4.20;;
52380;SDS011;38310;52.796;6.942;2023-01-09T10:09:50;7.47;;;3.93;;
52380;SDS011;38310;52.796;6.942;2023-01-09T10:12:29;10.52;;;4.10;;
52380;SDS011;38310;52.796;6.942;2023-01-09T10:14:57;8.98;;;3.85;;
52380;SDS011;38310;52.796;6.942;2023-01-09T10:34:21;7.47;;;3.78;;
52380;SDS011;38310;52.796;6.942;2023-01-09T10:37:59;5.80;;;3.60;;
52380;SDS011;38310;52.796;6.942;2023-01-09T10:39:56;8.90;;;4.32;;
52380;SDS011;38310;52.796;6.942;2023-01-09T10:42:31;7.63;;;3.75;;
52380;SDS011;38310;52.796;6.942;2023-01-09T10:45:02;8.02;;;4.75;;
52380;SDS011;38310;52.796;6.942;2023-01-09T10:47:31;7.20;;;4.10;;
52380;SDS011;38310;52.796;6.942;2023-01-09T10:49:59;7.00;;;3.83;;
52380;SDS011;38310;52.796;6.942;2023-01-09T10:52:32;7.20;;;4.28;;
52380;SDS011;38310;52.796;6.942;2023-01-09T10:55:03;7.82;;;4.22;;
52380;SDS011;38310;52.796;6.942;2023-01-09T10:57:57;5.88;;;3.70;;
52380;SDS011;38310;52.796;6.942;2023-01-09T11:00:26;5.82;;;3.38;;
52380;SDS011;38310;52.796;6.942;2023-01-09T11:02:53;7.43;;;3.97;;
52380;SDS011;38310;52.796;6.942;2023-01-09T11:05:28;8.38;;;4.35;;
52380;SDS011;38310;52.796;6.942;2023-01-09T11:13:35;6.43;;;4.07;;
52380;SDS011;38310;52.796;6.942;2023-01-09T11:16:21;8.00;;;3.80;;
52380;SDS011;38310;52.796;6.942;2023-01-09T11:21:28;7.53;;;4.70;;
52380;SDS011;38310;52.796;6.942;2023-01-09T11:24:20;6.15;;;4.05;;
52380;SDS011;38310;52.796;6.942;2023-01-09T11:26:42;6.80;;;4.22;;
52380;SDS011;38310;52.796;6.942;2023-01-09T11:29:12;7.03;;;4.82;;
52380;SDS011;38310;52.796;6.942;2023-01-09T11:31:40;8.90;;;4.88;;
52380;SDS011;38310;52.796;6.942;2023-01-09T11:34:17;8.43;;;4.82;;
52380;SDS011;38310;52.796;6.942;2023-01-09T11:36:45;6.80;;;4.93;;
52380;SDS011;38310;52.796;6.942;2023-01-09T11:39:20;8.32;;;4.95;;
52380;SDS011;38310;52.796;6.942;2023-01-09T11:41:52;9.25;;;5.60;;
52380;SDS011;38310;52.796;6.942;2023-01-09T11:44:23;9.07;;;5.55;;
52380;SDS011;38310;52.796;6.942;2023-01-09T11:46:50;9.85;;;6.20;;
52380;SDS011;38310;52.796;6.942;2023-01-09T11:51:42;9.15;;;6.05;;
52380;SDS011;38310;52.796;6.942;2023-01-09T11:56:40;10.15;;;6.30;;
52380;SDS011;38310;52.796;6.942;2023-01-09T11:59:16;13.15;;;6.28;;
52380;SDS011;38310;52.796;6.942;2023-01-09T12:04:53;11.10;;;7.20;;
52380;SDS011;38310;52.796;6.942;2023-01-09T12:20:32;10.77;;;7.53;;
52380;SDS011;38310;52.796;6.942;2023-01-09T12:23:19;12.45;;;8.82;;
52380;SDS011;38310;52.796;6.942;2023-01-09T12:25:56;11.48;;;8.50;;
52380;SDS011;38310;52.796;6.942;2023-01-09T12:28:51;11.00;;;7.93;;
52380;SDS011;38310;52.796;6.942;2023-01-09T12:31:42;14.70;;;9.50;;
52380;SDS011;38310;52.796;6.942;2023-01-09T12:34:21;14.77;;;9.95;;
52380;SDS011;38310;52.796;6.942;2023-01-09T12:36:59;13.82;;;8.98;;
52380;SDS011;38310;52.796;6.942;2023-01-09T12:44:49;14.82;;;8.93;;
52380;SDS011;38310;52.796;6.942;2023-01-09T12:47:44;11.60;;;7.63;;
52380;SDS011;38310;52.796;6.942;2023-01-09T12:52:47;14.80;;;9.23;;
52380;SDS011;38310;52.796;6.942;2023-01-09T12:55:19;13.75;;;9.48;;
52380;SDS011;38310;52.796;6.942;2023-01-09T12:57:52;12.45;;;8.80;;
52380;SDS011;38310;52.796;6.942;2023-01-09T13:00:32;15.20;;;9.95;;
52380;SDS011;38310;52.796;6.942;2023-01-09T13:03:25;16.02;;;9.13;;
52380;SDS011;38310;52.796;6.942;2023-01-09T13:05:56;14.52;;;9.70;;
52380;SDS011;38310;52.796;6.942;2023-01-09T13:08:30;14.32;;;10.00;;
52380;SDS011;38310;52.796;6.942;2023-01-09T13:17:16;16.65;;;10.30;;
52380;SDS011;38310;52.796;6.942;2023-01-09T13:19:48;19.35;;;9.98;;
52380;SDS011;38310;52.796;6.942;2023-01-09T13:22:14;16.40;;;10.15;;
52380;SDS011;38310;52.796;6.942;2023-01-09T13:27:32;18.48;;;9.98;;
52380;SDS011;38310;52.796;6.942;2023-01-09T13:30:07;14.45;;;9.95;;
52380;SDS011;38310;52.796;6.942;2023-01-09T13:35:33;16.30;;;10.65;;
52380;SDS011;38310;52.796;6.942;2023-01-09T13:38:13;17.13;;;11.00;;
52380;SDS011;38310;52.796;6.942;2023-01-09T13:40:42;16.33;;;10.85;;
52380;SDS011;38310;52.796;6.942;2023-01-09T13:43:08;19.20;;;10.25;;
52380;SDS011;38310;52.796;6.942;2023-01-09T13:45:34;17.20;;;10.82;;
52380;SDS011;38310;52.796;6.942;2023-01-09T13:50:46;17.40;;;10.43;;
52380;SDS011;38310;52.796;6.942;2023-01-09T13:58:55;20.10;;;11.05;;
52380;SDS011;38310;52.796;6.942;2023-01-09T14:04:25;18.48;;;10.85;;
52380;SDS011;38310;52.796;6.942;2023-01-09T14:06:33;22.38;;;11.82;;
52380;SDS011;38310;52.796;6.942;2023-01-09T14:11:44;19.73;;;11.88;;
52380;SDS011;38310;52.796;6.942;2023-01-09T14:14:18;16.02;;;10.38;;
52380;SDS011;38310;52.796;6.942;2023-01-09T14:16:49;16.73;;;10.15;;
52380;SDS011;38310;52.796;6.942;2023-01-09T14:19:19;17.70;;;11.68;;
52380;SDS011;38310;52.796;6.942;2023-01-09T14:21:53;19.20;;;10.13;;
52380;SDS011;38310;52.796;6.942;2023-01-09T14:24:28;18.25;;;11.07;;
52380;SDS011;38310;52.796;6.942;2023-01-09T14:26:57;17.10;;;9.57;;
52380;SDS011;38310;52.796;6.942;2023-01-09T14:34:56;17.55;;;10.05;;
52380;SDS011;38310;52.796;6.942;2023-01-09T14:37:36;13.57;;;8.63;;
52380;SDS011;38310;52.796;6.942;2023-01-09T14:40:04;15.77;;;8.98;;
52380;SDS011;38310;52.796;6.942;2023-01-09T14:42:32;17.80;;;8.85;;
52380;SDS011;38310;52.796;6.942;2023-01-09T14:45:14;19.20;;;8.98;;
52380;SDS011;38310;52.796;6.942;2023-01-09T14:47:51;16.02;;;8.80;;
52380;SDS011;38310;52.796;6.942;2023-01-09T14:53:11;14.75;;;8.07;;
52380;SDS011;38310;52.796;6.942;2023-01-09T14:56:03;13.98;;;8.48;;
52380;SDS011;38310;52.796;6.942;2023-01-09T14:58:36;18.38;;;7.43;;
52380;SDS011;38310;52.796;6.942;2023-01-09T15:03:38;19.10;;;7.85;;
52380;SDS011;38310;52.796;6.942;2023-01-09T15:06:09;14.77;;;7.88;;
52380;SDS011;38310;52.796;6.942;2023-01-09T15:08:40;17.85;;;7.10;;
52380;SDS011;38310;52.796;6.942;2023-01-09T15:11:09;15.93;;;6.97;;
52380;SDS011;38310;52.796;6.942;2023-01-09T15:13:39;13.68;;;6.28;;
52380;SDS011;38310;52.796;6.942;2023-01-09T15:16:11;11.95;;;5.45;;
52380;SDS011;38310;52.796;6.942;2023-01-09T15:18:43;13.60;;;5.45;;
52380;SDS011;38310;52.796;6.942;2023-01-09T15:21:25;11.40;;;6.68;;
52380;SDS011;38310;52.796;6.942;2023-01-09T15:24:09;14.40;;;5.43;;
52380;SDS011;38310;52.796;6.942;2023-01-09T15:26:53;9.07;;;5.07;;
52380;SDS011;38310;52.796;6.942;2023-01-09T15:29:23;12.55;;;5.13;;
52380;SDS011;38310;52.796;6.942;2023-01-09T15:31:52;10.90;;;5.50;;
52380;SDS011;38310;52.796;6.942;2023-01-09T15:34:22;12.57;;;5.57;;
52380;SDS011;38310;52.796;6.942;2023-01-09T15:36:49;11.50;;;4.93;;
52380;SDS011;38310;52.796;6.942;2023-01-09T15:39:26;12.80;;;5.68;;
52380;SDS011;38310;52.796;6.942;2023-01-09T15:41:56;16.85;;;7.28;;
52380;SDS011;38310;52.796;6.942;2023-01-09T15:44:42;16.92;;;6.13;;
52380;SDS011;38310;52.796;6.942;2023-01-09T15:47:21;16.42;;;6.55;;
52380;SDS011;38310;52.796;6.942;2023-01-09T15:49:48;13.07;;;6.07;;
52380;SDS011;38310;52.796;6.942;2023-01-09T15:52:14;13.40;;;5.65;;
52380;SDS011;38310;52.796;6.942;2023-01-09T15:54:43;13.68;;;5.22;;
52380;SDS011;38310;52.796;6.942;2023-01-09T15:59:54;12.40;;;5.10;;
52380;SDS011;38310;52.796;6.942;2023-01-09T16:02:22;10.02;;;5.32;;
52380;SDS011;38310;52.796;6.942;2023-01-09T16:05:11;13.88;;;5.93;;
52380;SDS011;38310;52.796;6.942;2023-01-09T16:07:45;17.52;;;6.43;;
52380;SDS011;38310;52.796;6.942;2023-01-09T16:10:27;14.15;;;5.63;;
52380;SDS011;38310;52.796;6.942;2023-01-09T16:12:58;12.23;;;5.32;;
52380;SDS011;38310;52.796;6.942;2023-01-09T16:15:25;13.02;;;5.60;;
52380;SDS011;38310;52.796;6.942;2023-01-09T16:18:04;14.68;;;5.35;;
52380;SDS011;38310;52.796;6.942;2023-01-09T16:20:29;15.05;;;6.03;;
52380;SDS011;38310;52.796;6.942;2023-01-09T16:22:55;14.02;;;5.75;;
52380;SDS011;38310;52.796;6.942;2023-01-09T16:25:31;12.57;;;5.65;;
52380;SDS011;38310;52.796;6.942;2023-01-09T16:31:17;14.77;;;5.75;;
52380;SDS011;38310;52.796;6.942;2023-01-09T16:33:43;11.68;;;4.88;;
52380;SDS011;38310;52.796;6.942;2023-01-09T16:36:12;12.65;;;6.00;;
52380;SDS011;38310;52.796;6.942;2023-01-09T16:38:41;9.70;;;4.53;;
52380;SDS011;38310;52.796;6.942;2023-01-09T16:41:17;12.00;;;5.63;;
52380;SDS011;38310;52.796;6.942;2023-01-09T16:44:03;15.52;;;5.53;;
52380;SDS011;38310;52.796;6.942;2023-01-09T16:46:34;13.20;;;5.20;;
52380;SDS011;38310;52.796;6.942;2023-01-09T16:49:03;13.70;;;5.70;;
52380;SDS011;38310;52.796;6.942;2023-01-09T16:51:30;12.57;;;6.43;;
52380;SDS011;38310;52.796;6.942;2023-01-09T16:53:56;18.67;;;6.32;;
52380;SDS011;38310;52.796;6.942;2023-01-09T16:56:22;15.70;;;6.30;;
52380;SDS011;38310;52.796;6.942;2023-01-09T16:58:50;12.30;;;6.65;;
52380;SDS011;38310;52.796;6.942;2023-01-09T17:01:19;13.98;;;5.78;;
52380;SDS011;38310;52.796;6.942;2023-01-09T17:03:46;15.75;;;7.30;;
52380;SDS011;38310;52.796;6.942;2023-01-09T17:06:14;15.57;;;6.47;;